sensor_id;sensor_type;location;lat;lon;timestamp;temperature;humidity
31765;DHT22;18338;53.240;8.798;2023-12-07T00:00:43;1.90;99.90
31765;DHT22;18338;53.240;8.798;2023-12-07T00:03:10;1.80;99.90
31765;DHT22;18338;53.240;8.798;2023-12-07T00:05:37;1.90;99.90
31765;DHT22;18338;53.240;8.798;2023-12-07T00:08:03;1.90;99.90
31765;DHT22;18338;53.240;8.798;2023-12-07T00:10:30;1.80;99.90
31765;DHT22;18338;53.240;8.798;2023-12-07T00:12:57;1.90;99.90
31765;DHT22;18338;53.240;8.798;2023-12-07T00:15:24;1.90;99.90
31765;DHT22;18338;53.240;8.798;2023-12-07T00:17:50;1.90;99.90
31765;DHT22;18338;53.240;8.798;2023-12-07T00:20:17;1.90;99.90
31765;DHT22;18338;53.240;8.798;2023-12-07T00:22:44;1.90;99.90
31765;DHT22;18338;53.240;8.798;2023-12-07T00:25:10;1.90;99.90
31765;DHT22;18338;53.240;8.798;2023-12-07T00:27:37;1.90;99.90
31765;DHT22;18338;53.240;8.798;2023-12-07T00:30:04;1.90;99.90
31765;DHT22;18338;53.240;8.798;2023-12-07T00:32:31;1.90;99.90
31765;DHT22;18338;53.240;8.798;2023-12-07T00:34:58;1.90;99.90
31765;DHT22;18338;53.240;8.798;2023-12-07T00:37:25;1.90;99.90
31765;DHT22;18338;53.240;8.798;2023-12-07T00:39:51;1.90;99.90
31765;DHT22;18338;53.240;8.798;2023-12-07T00:42:18;1.90;99.90
31765;DHT22;18338;53.240;8.798;2023-12-07T00:44:45;1.90;99.90
31765;DHT22;18338;53.240;8.798;2023-12-07T00:47:12;1.90;99.90
31765;DHT22;18338;53.240;8.798;2023-12-07T00:49:39;1.90;99.90
31765;DHT22;18338;53.240;8.798;2023-12-07T00:52:07;2.00;99.90
31765;DHT22;18338;53.240;8.798;2023-12-07T00:54:34;2.00;99.90
31765;DHT22;18338;53.240;8.798;2023-12-07T00:57:00;1.90;99.90
31765;DHT22;18338;53.240;8.798;2023-12-07T00:59:27;1.90;99.90
31765;DHT22;18338;53.240;8.798;2023-12-07T01:01:54;2.00;99.90
31765;DHT22;18338;53.240;8.798;2023-12-07T01:04:20;1.90;99.90
31765;DHT22;18338;53.240;8.798;2023-12-07T01:06:47;1.90;99.90
31765;DHT22;18338;53.240;8.798;2023-12-07T01:09:14;1.90;99.90
31765;DHT22;18338;53.240;8.798;2023-12-07T01:11:41;1.90;99.90
31765;DHT22;18338;53.240;8.798;2023-12-07T01:14:08;2.00;99.90
31765;DHT22;18338;53.240;8.798;2023-12-07T01:16:34;2.00;99.90
31765;DHT22;18338;53.240;8.798;2023-12-07T01:19:02;2.00;99.90
31765;DHT22;18338;53.240;8.798;2023-12-07T01:21:29;2.00;99.90
31765;DHT22;18338;53.240;8.798;2023-12-07T01:23:56;2.00;99.90
31765;DHT22;18338;53.240;8.798;2023-12-07T01:26:38;2.00;99.90
31765;DHT22;18338;53.240;8.798;2023-12-07T01:29:05;2.00;99.90
31765;DHT22;18338;53.240;8.798;2023-12-07T01:31:31;2.00;99.90
31765;DHT22;18338;53.240;8.798;2023-12-07T01:33:58;2.00;99.90
31765;DHT22;18338;53.240;8.798;2023-12-07T01:36:25;2.00;99.90
31765;DHT22;18338;53.240;8.798;2023-12-07T01:38:52;2.00;99.90
31765;DHT22;18338;53.240;8.798;2023-12-07T01:41:19;2.00;99.90
31765;DHT22;18338;53.240;8.798;2023-12-07T01:43:46;2.00;99.90
31765;DHT22;18338;53.240;8.798;2023-12-07T01:46:13;2.00;99.90
31765;DHT22;18338;53.240;8.798;2023-12-07T01:48:40;2.00;99.90
31765;DHT22;18338;53.240;8.798;2023-12-07T01:51:08;1.90;99.90
31765;DHT22;18338;53.240;8.798;2023-12-07T01:53:35;2.00;99.90
31765;DHT22;18338;53.240;8.798;2023-12-07T01:56:02;2.00;99.90
31765;DHT22;18338;53.240;8.798;2023-12-07T01:58:30;2.00;99.90
31765;DHT22;18338;53.240;8.798;2023-12-07T02:00:57;2.00;99.90
31765;DHT22;18338;53.240;8.798;2023-12-07T02:03:24;2.00;99.90
31765;DHT22;18338;53.240;8.798;2023-12-07T02:05:55;2.00;99.90
31765;DHT22;18338;53.240;8.798;2023-12-07T02:08:22;2.00;99.90
31765;DHT22;18338;53.240;8.798;2023-12-07T02:10:48;2.00;99.90
31765;DHT22;18338;53.240;8.798;2023-12-07T02:13:15;2.00;99.90
31765;DHT22;18338;53.240;8.798;2023-12-07T02:15:42;2.00;99.90
31765;DHT22;18338;53.240;8.798;2023-12-07T02:18:24;2.00;99.90
31765;DHT22;18338;53.240;8.798;2023-12-07T02:21:04;2.00;99.90
31765;DHT22;18338;53.240;8.798;2023-12-07T02:23:32;2.00;99.90
31765;DHT22;18338;53.240;8.798;2023-12-07T02:26:18;1.90;99.90
31765;DHT22;18338;53.240;8.798;2023-12-07T02:28:47;1.90;99.90
31765;DHT22;18338;53.240;8.798;2023-12-07T02:31:13;1.90;99.90
31765;DHT22;18338;53.240;8.798;2023-12-07T02:33:40;1.90;99.90
31765;DHT22;18338;53.240;8.798;2023-12-07T02:36:07;1.80;99.90
31765;DHT22;18338;53.240;8.798;2023-12-07T02:38:34;1.80;99.90
31765;DHT22;18338;53.240;8.798;2023-12-07T02:41:01;1.80;99.90
31765;DHT22;18338;53.240;8.798;2023-12-07T02:43:29;1.80;99.90
31765;DHT22;18338;53.240;8.798;2023-12-07T02:45:56;1.80;99.90
31765;DHT22;18338;53.240;8.798;2023-12-07T02:48:22;1.70;99.90
31765;DHT22;18338;53.240;8.798;2023-12-07T02:50:49;1.80;99.90
31765;DHT22;18338;53.240;8.798;2023-12-07T02:53:16;1.80;99.90
31765;DHT22;18338;53.240;8.798;2023-12-07T02:55:42;1.80;99.90
31765;DHT22;18338;53.240;8.798;2023-12-07T02:58:09;1.80;99.90
31765;DHT22;18338;53.240;8.798;2023-12-07T03:00:36;1.80;99.90
31765;DHT22;18338;53.240;8.798;2023-12-07T03:03:03;1.90;99.90
31765;DHT22;18338;53.240;8.798;2023-12-07T03:05:29;1.90;99.90
31765;DHT22;18338;53.240;8.798;2023-12-07T03:07:56;1.80;99.90
31765;DHT22;18338;53.240;8.798;2023-12-07T03:10:23;1.80;99.90
31765;DHT22;18338;53.240;8.798;2023-12-07T03:12:50;1.80;99.90
31765;DHT22;18338;53.240;8.798;2023-12-07T03:15:17;1.80;99.90
31765;DHT22;18338;53.240;8.798;2023-12-07T03:17:43;1.80;99.90
31765;DHT22;18338;53.240;8.798;2023-12-07T03:20:12;1.80;99.90
31765;DHT22;18338;53.240;8.798;2023-12-07T03:22:38;1.80;99.90
31765;DHT22;18338;53.240;8.798;2023-12-07T03:25:06;1.80;99.90
31765;DHT22;18338;53.240;8.798;2023-12-07T03:27:33;1.80;99.90
31765;DHT22;18338;53.240;8.798;2023-12-07T03:30:00;1.80;99.90
31765;DHT22;18338;53.240;8.798;2023-12-07T03:32:26;1.80;99.90
31765;DHT22;18338;53.240;8.798;2023-12-07T03:34:53;1.80;99.90
31765;DHT22;18338;53.240;8.798;2023-12-07T03:37:20;1.90;99.90
31765;DHT22;18338;53.240;8.798;2023-12-07T03:39:47;1.90;99.90
31765;DHT22;18338;53.240;8.798;2023-12-07T03:42:13;1.80;99.90
31765;DHT22;18338;53.240;8.798;2023-12-07T03:45:00;1.80;99.90
31765;DHT22;18338;53.240;8.798;2023-12-07T03:47:27;1.90;99.90
31765;DHT22;18338;53.240;8.798;2023-12-07T03:49:53;1.90;99.90
31765;DHT22;18338;53.240;8.798;2023-12-07T03:52:20;1.90;99.90
31765;DHT22;18338;53.240;8.798;2023-12-07T03:54:47;1.90;99.90
31765;DHT22;18338;53.240;8.798;2023-12-07T03:57:14;1.90;99.90
31765;DHT22;18338;53.240;8.798;2023-12-07T03:59:41;1.90;99.90
31765;DHT22;18338;53.240;8.798;2023-12-07T04:02:07;1.90;99.90
31765;DHT22;18338;53.240;8.798;2023-12-07T04:04:34;1.90;99.90
31765;DHT22;18338;53.240;8.798;2023-12-07T04:07:01;1.90;99.90
31765;DHT22;18338;53.240;8.798;2023-12-07T04:09:27;1.90;99.90
31765;DHT22;18338;53.240;8.798;2023-12-07T04:11:54;1.90;99.90
31765;DHT22;18338;53.240;8.798;2023-12-07T04:14:21;2.00;99.90
31765;DHT22;18338;53.240;8.798;2023-12-07T04:16:47;2.00;99.90
31765;DHT22;18338;53.240;8.798;2023-12-07T04:19:14;2.00;99.90
31765;DHT22;18338;53.240;8.798;2023-12-07T04:21:41;1.90;99.90
31765;DHT22;18338;53.240;8.798;2023-12-07T04:24:08;1.90;99.90
31765;DHT22;18338;53.240;8.798;2023-12-07T04:26:34;1.90;99.90
31765;DHT22;18338;53.240;8.798;2023-12-07T04:29:01;1.90;99.90
31765;DHT22;18338;53.240;8.798;2023-12-07T04:31:28;1.90;99.90
31765;DHT22;18338;53.240;8.798;2023-12-07T04:33:54;1.90;99.90
31765;DHT22;18338;53.240;8.798;2023-12-07T04:36:21;1.90;99.90
31765;DHT22;18338;53.240;8.798;2023-12-07T04:38:48;1.80;99.90
31765;DHT22;18338;53.240;8.798;2023-12-07T04:41:15;1.80;99.90
31765;DHT22;18338;53.240;8.798;2023-12-07T04:43:42;1.80;99.90
31765;DHT22;18338;53.240;8.798;2023-12-07T04:46:09;1.80;99.90
31765;DHT22;18338;53.240;8.798;2023-12-07T04:48:36;1.80;99.90
31765;DHT22;18338;53.240;8.798;2023-12-07T04:51:03;1.80;99.90
31765;DHT22;18338;53.240;8.798;2023-12-07T04:53:30;1.80;99.90
31765;DHT22;18338;53.240;8.798;2023-12-07T04:55:56;1.80;99.90
31765;DHT22;18338;53.240;8.798;2023-12-07T04:58:23;1.80;99.90
31765;DHT22;18338;53.240;8.798;2023-12-07T05:00:50;1.80;99.90
31765;DHT22;18338;53.240;8.798;2023-12-07T05:03:17;1.80;99.90
31765;DHT22;18338;53.240;8.798;2023-12-07T05:05:43;1.80;99.90
31765;DHT22;18338;53.240;8.798;2023-12-07T05:08:10;1.80;99.90
31765;DHT22;18338;53.240;8.798;2023-12-07T05:10:37;1.80;99.90
31765;DHT22;18338;53.240;8.798;2023-12-07T05:13:04;1.80;99.90
31765;DHT22;18338;53.240;8.798;2023-12-07T05:15:31;1.80;99.90
31765;DHT22;18338;53.240;8.798;2023-12-07T05:17:57;1.80;99.90
31765;DHT22;18338;53.240;8.798;2023-12-07T05:20:24;1.80;99.90
31765;DHT22;18338;53.240;8.798;2023-12-07T05:22:53;1.80;99.90
31765;DHT22;18338;53.240;8.798;2023-12-07T05:25:20;1.80;99.90
31765;DHT22;18338;53.240;8.798;2023-12-07T05:27:46;1.80;99.90
31765;DHT22;18338;53.240;8.798;2023-12-07T05:30:14;1.80;99.90
31765;DHT22;18338;53.240;8.798;2023-12-07T05:32:41;1.80;99.90
31765;DHT22;18338;53.240;8.798;2023-12-07T05:35:08;1.80;99.90
31765;DHT22;18338;53.240;8.798;2023-12-07T05:37:34;1.80;99.90
31765;DHT22;18338;53.240;8.798;2023-12-07T05:40:01;1.80;99.90
31765;DHT22;18338;53.240;8.798;2023-12-07T05:42:28;1.80;99.90
31765;DHT22;18338;53.240;8.798;2023-12-07T05:44:54;1.80;99.90
31765;DHT22;18338;53.240;8.798;2023-12-07T05:47:21;1.90;99.90
31765;DHT22;18338;53.240;8.798;2023-12-07T05:49:48;1.90;99.90
31765;DHT22;18338;53.240;8.798;2023-12-07T05:52:15;1.90;99.90
31765;DHT22;18338;53.240;8.798;2023-12-07T05:54:41;1.90;99.90
31765;DHT22;18338;53.240;8.798;2023-12-07T05:57:13;1.90;99.90
31765;DHT22;18338;53.240;8.798;2023-12-07T05:59:40;1.90;99.90
31765;DHT22;18338;53.240;8.798;2023-12-07T06:02:08;1.90;99.90
31765;DHT22;18338;53.240;8.798;2023-12-07T06:04:35;1.90;99.90
31765;DHT22;18338;53.240;8.798;2023-12-07T06:07:02;1.90;99.90
31765;DHT22;18338;53.240;8.798;2023-12-07T06:09:29;2.00;99.90
31765;DHT22;18338;53.240;8.798;2023-12-07T06:11:56;2.00;99.90
31765;DHT22;18338;53.240;8.798;2023-12-07T06:14:23;2.00;99.90
31765;DHT22;18338;53.240;8.798;2023-12-07T06:16:50;2.00;99.90
31765;DHT22;18338;53.240;8.798;2023-12-07T06:19:16;2.00;99.90
31765;DHT22;18338;53.240;8.798;2023-12-07T06:21:43;2.00;99.90
31765;DHT22;18338;53.240;8.798;2023-12-07T06:24:13;2.00;99.90
31765;DHT22;18338;53.240;8.798;2023-12-07T06:26:40;2.00;99.90
31765;DHT22;18338;53.240;8.798;2023-12-07T06:29:07;2.00;99.90
31765;DHT22;18338;53.240;8.798;2023-12-07T06:31:34;2.00;99.90
31765;DHT22;18338;53.240;8.798;2023-12-07T06:34:01;2.10;99.90
31765;DHT22;18338;53.240;8.798;2023-12-07T06:36:29;2.00;99.90
31765;DHT22;18338;53.240;8.798;2023-12-07T06:38:56;2.10;99.90
31765;DHT22;18338;53.240;8.798;2023-12-07T06:41:22;2.00;99.90
31765;DHT22;18338;53.240;8.798;2023-12-07T06:43:49;2.00;99.90
31765;DHT22;18338;53.240;8.798;2023-12-07T06:46:16;1.90;99.90
31765;DHT22;18338;53.240;8.798;2023-12-07T06:48:43;1.90;99.90
31765;DHT22;18338;53.240;8.798;2023-12-07T06:51:10;2.00;99.90
31765;DHT22;18338;53.240;8.798;2023-12-07T06:53:36;1.90;99.90
31765;DHT22;18338;53.240;8.798;2023-12-07T06:56:03;1.90;99.90
31765;DHT22;18338;53.240;8.798;2023-12-07T06:58:30;1.90;99.90
31765;DHT22;18338;53.240;8.798;2023-12-07T07:00:57;1.90;99.90
31765;DHT22;18338;53.240;8.798;2023-12-07T07:03:24;1.90;99.90
31765;DHT22;18338;53.240;8.798;2023-12-07T07:05:51;1.90;99.90
31765;DHT22;18338;53.240;8.798;2023-12-07T07:08:18;1.90;99.90
31765;DHT22;18338;53.240;8.798;2023-12-07T07:10:44;1.90;99.90
31765;DHT22;18338;53.240;8.798;2023-12-07T07:13:13;1.90;99.90
31765;DHT22;18338;53.240;8.798;2023-12-07T07:15:42;2.00;99.90
31765;DHT22;18338;53.240;8.798;2023-12-07T07:18:12;2.00;99.90
31765;DHT22;18338;53.240;8.798;2023-12-07T07:20:39;2.00;99.90
31765;DHT22;18338;53.240;8.798;2023-12-07T07:23:06;2.00;99.90
31765;DHT22;18338;53.240;8.798;2023-12-07T07:25:34;2.00;99.90
31765;DHT22;18338;53.240;8.798;2023-12-07T07:28:01;2.00;99.90
31765;DHT22;18338;53.240;8.798;2023-12-07T07:30:28;2.00;99.90
31765;DHT22;18338;53.240;8.798;2023-12-07T07:32:54;1.90;99.90
31765;DHT22;18338;53.240;8.798;2023-12-07T07:35:22;1.90;99.90
31765;DHT22;18338;53.240;8.798;2023-12-07T07:37:48;1.90;99.90
31765;DHT22;18338;53.240;8.798;2023-12-07T07:40:15;1.90;99.90
31765;DHT22;18338;53.240;8.798;2023-12-07T07:42:42;1.80;99.90
31765;DHT22;18338;53.240;8.798;2023-12-07T07:45:09;1.90;99.90
31765;DHT22;18338;53.240;8.798;2023-12-07T07:47:36;1.90;99.90
31765;DHT22;18338;53.240;8.798;2023-12-07T07:50:04;1.90;99.90
31765;DHT22;18338;53.240;8.798;2023-12-07T07:52:33;2.00;99.90
31765;DHT22;18338;53.240;8.798;2023-12-07T07:55:01;2.00;99.90
31765;DHT22;18338;53.240;8.798;2023-12-07T07:57:29;2.00;99.90
31765;DHT22;18338;53.240;8.798;2023-12-07T07:59:57;2.10;99.90
31765;DHT22;18338;53.240;8.798;2023-12-07T08:02:24;2.10;99.90
31765;DHT22;18338;53.240;8.798;2023-12-07T08:04:51;2.10;99.90
31765;DHT22;18338;53.240;8.798;2023-12-07T08:07:18;2.20;99.90
31765;DHT22;18338;53.240;8.798;2023-12-07T08:09:45;2.20;99.90
31765;DHT22;18338;53.240;8.798;2023-12-07T08:12:12;2.20;99.90
31765;DHT22;18338;53.240;8.798;2023-12-07T08:14:39;2.20;99.90
31765;DHT22;18338;53.240;8.798;2023-12-07T08:17:06;2.30;99.90
31765;DHT22;18338;53.240;8.798;2023-12-07T08:19:33;2.30;99.90
31765;DHT22;18338;53.240;8.798;2023-12-07T08:21:59;2.30;99.90
31765;DHT22;18338;53.240;8.798;2023-12-07T08:24:33;2.30;99.90
31765;DHT22;18338;53.240;8.798;2023-12-07T08:27:00;2.40;99.90
31765;DHT22;18338;53.240;8.798;2023-12-07T08:29:26;2.40;99.90
31765;DHT22;18338;53.240;8.798;2023-12-07T08:31:53;2.40;99.90
31765;DHT22;18338;53.240;8.798;2023-12-07T08:34:20;2.40;99.90
31765;DHT22;18338;53.240;8.798;2023-12-07T08:36:50;2.40;99.90
31765;DHT22;18338;53.240;8.798;2023-12-07T08:39:16;2.40;99.90
31765;DHT22;18338;53.240;8.798;2023-12-07T08:41:43;2.50;99.90
31765;DHT22;18338;53.240;8.798;2023-12-07T08:44:10;2.50;99.90
31765;DHT22;18338;53.240;8.798;2023-12-07T08:46:36;2.50;99.90
31765;DHT22;18338;53.240;8.798;2023-12-07T08:49:03;2.50;99.90
31765;DHT22;18338;53.240;8.798;2023-12-07T08:51:30;2.60;99.90
31765;DHT22;18338;53.240;8.798;2023-12-07T08:53:57;2.60;99.90
31765;DHT22;18338;53.240;8.798;2023-12-07T08:56:24;2.60;99.90
31765;DHT22;18338;53.240;8.798;2023-12-07T08:58:52;2.50;99.90
31765;DHT22;18338;53.240;8.798;2023-12-07T09:01:19;2.60;99.90
31765;DHT22;18338;53.240;8.798;2023-12-07T09:03:57;2.60;99.90
31765;DHT22;18338;53.240;8.798;2023-12-07T09:06:24;2.70;99.90
31765;DHT22;18338;53.240;8.798;2023-12-07T09:08:52;2.70;99.90
31765;DHT22;18338;53.240;8.798;2023-12-07T09:11:19;2.70;99.90
31765;DHT22;18338;53.240;8.798;2023-12-07T09:13:46;2.70;99.90
31765;DHT22;18338;53.240;8.798;2023-12-07T09:16:13;2.80;99.90
31765;DHT22;18338;53.240;8.798;2023-12-07T09:18:42;2.80;99.90
31765;DHT22;18338;53.240;8.798;2023-12-07T09:21:09;2.90;99.90
31765;DHT22;18338;53.240;8.798;2023-12-07T09:23:35;2.90;99.90
31765;DHT22;18338;53.240;8.798;2023-12-07T09:26:04;2.90;99.90
31765;DHT22;18338;53.240;8.798;2023-12-07T09:28:31;3.00;99.90
31765;DHT22;18338;53.240;8.798;2023-12-07T09:30:59;3.00;99.90
31765;DHT22;18338;53.240;8.798;2023-12-07T09:33:26;3.10;99.90
31765;DHT22;18338;53.240;8.798;2023-12-07T09:35:53;3.10;99.90
31765;DHT22;18338;53.240;8.798;2023-12-07T09:38:20;3.20;99.90
31765;DHT22;18338;53.240;8.798;2023-12-07T09:40:51;3.20;99.90
31765;DHT22;18338;53.240;8.798;2023-12-07T09:43:18;3.30;99.90
31765;DHT22;18338;53.240;8.798;2023-12-07T09:45:45;3.30;99.90
31765;DHT22;18338;53.240;8.798;2023-12-07T09:48:12;3.30;99.90
31765;DHT22;18338;53.240;8.798;2023-12-07T09:50:39;3.30;99.90
31765;DHT22;18338;53.240;8.798;2023-12-07T09:53:08;3.40;99.90
31765;DHT22;18338;53.240;8.798;2023-12-07T09:55:35;3.40;99.90
31765;DHT22;18338;53.240;8.798;2023-12-07T09:58:05;3.40;99.90
31765;DHT22;18338;53.240;8.798;2023-12-07T10:00:34;3.60;99.90
31765;DHT22;18338;53.240;8.798;2023-12-07T10:03:02;3.70;99.90
31765;DHT22;18338;53.240;8.798;2023-12-07T10:05:29;3.60;99.90
31765;DHT22;18338;53.240;8.798;2023-12-07T10:07:56;3.60;99.90
31765;DHT22;18338;53.240;8.798;2023-12-07T10:10:23;3.60;99.90
31765;DHT22;18338;53.240;8.798;2023-12-07T10:12:56;3.70;99.90
31765;DHT22;18338;53.240;8.798;2023-12-07T10:15:25;3.80;99.90
31765;DHT22;18338;53.240;8.798;2023-12-07T10:17:57;3.80;99.90
31765;DHT22;18338;53.240;8.798;2023-12-07T10:20:26;3.80;99.90
31765;DHT22;18338;53.240;8.798;2023-12-07T10:23:07;3.80;99.90
31765;DHT22;18338;53.240;8.798;2023-12-07T10:25:41;3.80;99.90
31765;DHT22;18338;53.240;8.798;2023-12-07T10:28:09;3.90;99.90
31765;DHT22;18338;53.240;8.798;2023-12-07T10:30:42;4.00;99.90
31765;DHT22;18338;53.240;8.798;2023-12-07T10:33:11;4.10;99.90
31765;DHT22;18338;53.240;8.798;2023-12-07T10:35:40;4.20;99.90
31765;DHT22;18338;53.240;8.798;2023-12-07T10:38:09;4.10;99.90
31765;DHT22;18338;53.240;8.798;2023-12-07T10:40:36;4.00;99.90
31765;DHT22;18338;53.240;8.798;2023-12-07T10:43:07;4.00;99.90
31765;DHT22;18338;53.240;8.798;2023-12-07T10:45:35;4.10;99.90
31765;DHT22;18338;53.240;8.798;2023-12-07T10:48:05;4.20;99.90
31765;DHT22;18338;53.240;8.798;2023-12-07T10:50:37;4.30;99.90
31765;DHT22;18338;53.240;8.798;2023-12-07T10:53:21;4.30;99.90
31765;DHT22;18338;53.240;8.798;2023-12-07T10:55:56;4.30;99.90
31765;DHT22;18338;53.240;8.798;2023-12-07T10:58:26;4.30;99.90
31765;DHT22;18338;53.240;8.798;2023-12-07T11:00:54;4.20;99.90
31765;DHT22;18338;53.240;8.798;2023-12-07T11:03:22;4.20;99.90
31765;DHT22;18338;53.240;8.798;2023-12-07T11:05:50;4.20;99.90
31765;DHT22;18338;53.240;8.798;2023-12-07T11:09:08;4.10;99.90
31765;DHT22;18338;53.240;8.798;2023-12-07T11:11:41;4.10;99.90
31765;DHT22;18338;53.240;8.798;2023-12-07T11:14:09;4.00;99.90
31765;DHT22;18338;53.240;8.798;2023-12-07T11:16:41;4.00;99.90
31765;DHT22;18338;53.240;8.798;2023-12-07T11:22:01;4.00;99.90
31765;DHT22;18338;53.240;8.798;2023-12-07T11:24:28;4.10;99.90
31765;DHT22;18338;53.240;8.798;2023-12-07T11:26:55;4.20;99.90
31765;DHT22;18338;53.240;8.798;2023-12-07T11:29:28;4.30;99.90
31765;DHT22;18338;53.240;8.798;2023-12-07T11:31:56;4.30;99.90
31765;DHT22;18338;53.240;8.798;2023-12-07T11:37:03;4.40;99.90
31765;DHT22;18338;53.240;8.798;2023-12-07T11:39:34;4.40;99.90
31765;DHT22;18338;53.240;8.798;2023-12-07T11:42:15;4.40;99.90
31765;DHT22;18338;53.240;8.798;2023-12-07T11:44:43;4.40;99.90
31765;DHT22;18338;53.240;8.798;2023-12-07T11:47:17;4.40;99.90
31765;DHT22;18338;53.240;8.798;2023-12-07T11:49:45;4.40;99.90
31765;DHT22;18338;53.240;8.798;2023-12-07T11:52:20;4.40;99.90
31765;DHT22;18338;53.240;8.798;2023-12-07T11:54:49;4.40;99.90
31765;DHT22;18338;53.240;8.798;2023-12-07T11:57:16;4.30;99.90
31765;DHT22;18338;53.240;8.798;2023-12-07T11:59:44;4.40;99.90
31765;DHT22;18338;53.240;8.798;2023-12-07T12:02:12;4.30;99.90
31765;DHT22;18338;53.240;8.798;2023-12-07T12:04:42;4.20;99.90
31765;DHT22;18338;53.240;8.798;2023-12-07T12:07:09;4.20;99.90
31765;DHT22;18338;53.240;8.798;2023-12-07T12:09:37;4.20;99.90
31765;DHT22;18338;53.240;8.798;2023-12-07T12:12:04;4.30;99.90
31765;DHT22;18338;53.240;8.798;2023-12-07T12:14:31;4.40;99.90
31765;DHT22;18338;53.240;8.798;2023-12-07T12:17:01;4.50;99.90
31765;DHT22;18338;53.240;8.798;2023-12-07T12:19:28;4.50;99.90
31765;DHT22;18338;53.240;8.798;2023-12-07T12:22:03;4.50;99.90
31765;DHT22;18338;53.240;8.798;2023-12-07T12:24:35;4.50;99.90
31765;DHT22;18338;53.240;8.798;2023-12-07T12:27:04;4.50;99.90
31765;DHT22;18338;53.240;8.798;2023-12-07T12:29:33;4.40;99.90
31765;DHT22;18338;53.240;8.798;2023-12-07T12:32:09;4.40;99.90
31765;DHT22;18338;53.240;8.798;2023-12-07T12:34:35;4.20;99.90
31765;DHT22;18338;53.240;8.798;2023-12-07T12:37:03;4.10;99.90
31765;DHT22;18338;53.240;8.798;2023-12-07T12:39:33;4.10;99.90
31765;DHT22;18338;53.240;8.798;2023-12-07T12:42:02;4.10;99.90
31765;DHT22;18338;53.240;8.798;2023-12-07T12:44:33;4.00;99.90
31765;DHT22;18338;53.240;8.798;2023-12-07T12:47:07;3.90;99.90
31765;DHT22;18338;53.240;8.798;2023-12-07T12:49:38;3.90;99.90
31765;DHT22;18338;53.240;8.798;2023-12-07T12:52:10;3.80;99.90
31765;DHT22;18338;53.240;8.798;2023-12-07T12:54:37;3.70;99.90
31765;DHT22;18338;53.240;8.798;2023-12-07T12:57:06;3.70;99.90
31765;DHT22;18338;53.240;8.798;2023-12-07T12:59:33;3.70;99.90
31765;DHT22;18338;53.240;8.798;2023-12-07T13:02:01;3.60;99.90
31765;DHT22;18338;53.240;8.798;2023-12-07T13:04:31;3.60;99.90
31765;DHT22;18338;53.240;8.798;2023-12-07T13:07:07;3.60;99.90
31765;DHT22;18338;53.240;8.798;2023-12-07T13:09:34;3.60;99.90
31765;DHT22;18338;53.240;8.798;2023-12-07T13:12:01;3.70;99.90
31765;DHT22;18338;53.240;8.798;2023-12-07T13:14:34;3.70;99.90
31765;DHT22;18338;53.240;8.798;2023-12-07T13:17:03;3.70;99.90
31765;DHT22;18338;53.240;8.798;2023-12-07T13:19:31;3.70;99.90
31765;DHT22;18338;53.240;8.798;2023-12-07T13:21:59;3.70;99.90
31765;DHT22;18338;53.240;8.798;2023-12-07T13:24:26;3.70;99.90
31765;DHT22;18338;53.240;8.798;2023-12-07T13:26:52;3.60;99.90
31765;DHT22;18338;53.240;8.798;2023-12-07T13:29:19;3.60;99.90
31765;DHT22;18338;53.240;8.798;2023-12-07T13:32:00;3.60;99.90
31765;DHT22;18338;53.240;8.798;2023-12-07T13:34:27;3.60;99.90
31765;DHT22;18338;53.240;8.798;2023-12-07T13:36:55;3.60;99.90
31765;DHT22;18338;53.240;8.798;2023-12-07T13:39:22;3.60;99.90
31765;DHT22;18338;53.240;8.798;2023-12-07T13:41:57;3.60;99.90
31765;DHT22;18338;53.240;8.798;2023-12-07T13:44:30;3.60;99.90
31765;DHT22;18338;53.240;8.798;2023-12-07T13:46:59;3.50;99.90
31765;DHT22;18338;53.240;8.798;2023-12-07T13:49:26;3.60;99.90
31765;DHT22;18338;53.240;8.798;2023-12-07T13:52:01;3.60;99.90
31765;DHT22;18338;53.240;8.798;2023-12-07T13:54:34;3.60;99.90
31765;DHT22;18338;53.240;8.798;2023-12-07T13:57:19;3.60;99.90
31765;DHT22;18338;53.240;8.798;2023-12-07T13:59:47;3.60;99.90
31765;DHT22;18338;53.240;8.798;2023-12-07T14:02:14;3.60;99.90
31765;DHT22;18338;53.240;8.798;2023-12-07T14:04:41;3.50;99.90
31765;DHT22;18338;53.240;8.798;2023-12-07T14:07:12;3.50;99.90
31765;DHT22;18338;53.240;8.798;2023-12-07T14:09:41;3.50;99.90
31765;DHT22;18338;53.240;8.798;2023-12-07T14:12:22;3.50;99.90
31765;DHT22;18338;53.240;8.798;2023-12-07T14:14:50;3.40;99.90
31765;DHT22;18338;53.240;8.798;2023-12-07T14:17:17;3.30;99.90
31765;DHT22;18338;53.240;8.798;2023-12-07T14:19:52;3.30;99.90
31765;DHT22;18338;53.240;8.798;2023-12-07T14:22:31;3.30;99.90
31765;DHT22;18338;53.240;8.798;2023-12-07T14:24:58;3.20;99.90
31765;DHT22;18338;53.240;8.798;2023-12-07T14:27:24;3.20;99.90
31765;DHT22;18338;53.240;8.798;2023-12-07T14:29:52;3.10;99.90
31765;DHT22;18338;53.240;8.798;2023-12-07T14:32:18;3.10;99.90
31765;DHT22;18338;53.240;8.798;2023-12-07T14:34:45;3.00;99.90
31765;DHT22;18338;53.240;8.798;2023-12-07T14:37:12;3.00;99.90
31765;DHT22;18338;53.240;8.798;2023-12-07T14:39:39;2.90;99.90
31765;DHT22;18338;53.240;8.798;2023-12-07T14:42:07;2.80;99.90
31765;DHT22;18338;53.240;8.798;2023-12-07T14:44:33;2.80;99.90
31765;DHT22;18338;53.240;8.798;2023-12-07T14:47:02;2.70;99.90
31765;DHT22;18338;53.240;8.798;2023-12-07T14:49:28;2.70;99.90
31765;DHT22;18338;53.240;8.798;2023-12-07T14:51:56;2.70;99.90
31765;DHT22;18338;53.240;8.798;2023-12-07T14:54:25;2.70;99.90
31765;DHT22;18338;53.240;8.798;2023-12-07T14:56:56;2.70;99.90
31765;DHT22;18338;53.240;8.798;2023-12-07T14:59:23;2.70;99.90
31765;DHT22;18338;53.240;8.798;2023-12-07T15:01:53;2.70;99.90
31765;DHT22;18338;53.240;8.798;2023-12-07T15:04:19;2.60;99.90
31765;DHT22;18338;53.240;8.798;2023-12-07T15:07:00;2.50;99.90
31765;DHT22;18338;53.240;8.798;2023-12-07T15:09:27;2.50;99.90
31765;DHT22;18338;53.240;8.798;2023-12-07T15:11:55;2.50;99.90
31765;DHT22;18338;53.240;8.798;2023-12-07T15:14:22;2.50;99.90
31765;DHT22;18338;53.240;8.798;2023-12-07T15:17:03;2.40;99.90
31765;DHT22;18338;53.240;8.798;2023-12-07T15:19:31;2.40;99.90
31765;DHT22;18338;53.240;8.798;2023-12-07T15:21:58;2.40;99.90
31765;DHT22;18338;53.240;8.798;2023-12-07T15:24:24;2.40;99.90
31765;DHT22;18338;53.240;8.798;2023-12-07T15:27:02;2.40;99.90
31765;DHT22;18338;53.240;8.798;2023-12-07T15:29:29;2.40;99.90
31765;DHT22;18338;53.240;8.798;2023-12-07T15:31:56;2.40;99.90
31765;DHT22;18338;53.240;8.798;2023-12-07T15:34:23;2.40;99.90
31765;DHT22;18338;53.240;8.798;2023-12-07T15:37:04;2.40;99.90
31765;DHT22;18338;53.240;8.798;2023-12-07T15:39:31;2.40;99.90
31765;DHT22;18338;53.240;8.798;2023-12-07T15:41:57;2.40;99.90
31765;DHT22;18338;53.240;8.798;2023-12-07T15:44:25;2.40;99.90
31765;DHT22;18338;53.240;8.798;2023-12-07T15:46:56;2.40;99.90
31765;DHT22;18338;53.240;8.798;2023-12-07T15:49:23;2.40;99.90
31765;DHT22;18338;53.240;8.798;2023-12-07T15:51:51;2.30;99.90
31765;DHT22;18338;53.240;8.798;2023-12-07T15:54:19;2.30;99.90
31765;DHT22;18338;53.240;8.798;2023-12-07T15:57:03;2.20;99.90